Latest Weather Observations for Lombadina

IDW60801

Issued at 11:35 am WST Saturday 20 September 2014 (issued every 30 minutes, with the page automatically refreshed every 10 minutes)

About weather observations | Map of weather stations | Latest weather observations for WA | Other Formats
Station Details ID: 503016 Name: LOMBADINA AIRSTRIP Lat: -16.52 Lon: 122.92 Height: 42.0 m
Data from the previous 72 hours. | See also: Recent months for locations in Western Australia
Date/Time
WST
Temp
°C
App
Temp
°C
Dew
Point
Rel
Hum
%
Delta-T
°C
Wind Press
QNH
hPa
Press
MSL
hPa
Rain
since 9 am
mm
Dir
 
Spd
km/h
Gust
km/h
Spd
kts
Gust
kts
20/11:30am 31.0 31.8 19.0 48 7.8 WNW 13 22 7 12 1013.6 1013.4 0.0
20/11:00am 29.7 30.3 19.4 54 6.7 WNW 15 22 8 12 1014.2 1014.0 0.0
20/10:30am 29.8 31.8 20.7 58 6.0 WNW 11 20 6 11 1014.8 1014.6 0.0
20/10:00am 29.4 30.9 19.8 56 6.3 W 11 20 6 11 1015.1 1014.9 0.0
20/09:30am 28.0 29.7 20.2 62 5.1 WNW 11 17 6 9 1015.6 1015.4 0.0
20/09:00am 28.2 30.2 20.7 63 5.0 WNW 11 17 6 9 1015.7 1015.5 0.0
20/08:30am 27.2 30.1 21.8 72 3.6 WNW 9 19 5 10 1015.7 1015.5 0.0
20/08:00am 26.6 29.8 22.4 78 2.8 NW 9 17 5 9 1015.8 1015.6 0.0
20/07:30am 26.1 29.6 22.9 82 2.2 NW 9 15 5 8 1015.6 1015.4 0.0
20/07:00am 25.6 29.4 23.5 88 1.4 NNW 9 15 5 8 1015.3 1015.1 0.0
20/06:30am 24.4 28.8 23.5 95 0.6 NW 6 11 3 6 1014.7 1014.5 0.0
20/06:00am 23.9 27.4 22.8 94 0.7 NNW 9 13 5 7 1014.3 1014.1 0.0
20/05:41am 23.8 27.8 22.8 94 0.7 N 6 11 3 6 1014.2 1014.0 0.0
20/05:30am 24.0 27.9 22.9 94 0.7 N 7 13 4 7 1014.0 1013.8 0.0
20/05:26am 24.0 27.9 23.0 94 0.7 N 7 13 4 7 1014.0 1013.8 0.0
20/05:00am 24.0 28.0 23.1 95 0.6 NW 7 13 4 7 1013.4 1013.2 0.0
20/04:30am 23.8 27.8 22.8 94 0.7 NNW 6 9 3 5 1013.2 1013.0 0.0
20/04:00am 23.7 27.7 22.7 94 0.7 WNW 6 9 3 5 1012.9 1012.7 0.0
20/03:30am 23.5 27.4 22.5 94 0.7 WNW 6 11 3 6 1012.6 1012.4 0.0
20/03:00am 23.6 27.3 22.3 92 0.9 NW 6 11 3 6 1012.8 1012.6 0.0
20/02:30am 23.5 27.3 22.4 93 0.7 WNW 6 9 3 5 1012.8 1012.6 0.0
20/02:00am 22.7 26.4 21.5 93 0.8 N 4 6 2 3 1012.9 1012.7 0.0
20/01:30am 23.3 27.2 21.9 92 0.9 WNW 4 7 2 4 1012.9 1012.7 0.0
20/01:00am 23.9 27.6 22.2 90 1.1 W 6 13 3 7 1013.0 1012.8 0.0
20/12:30am 24.2 27.4 22.4 90 1.2 WSW 9 15 5 8 1013.3 1013.1 0.0
20/12:00am 24.1 28.0 22.5 91 1.1 W 6 13 3 7 1013.7 1013.5 0.0
 
Date/Time
WST
Temp
°C
App
Temp
°C
Dew
Point
Rel
Hum
%
Delta-T
°C
Wind Press
QNH
hPa
Press
MSL
hPa
Rain
since 9 am
mm
Dir
 
Spd
km/h
Gust
km/h
Spd
kts
Gust
kts
19/11:30pm 24.2 27.8 22.0 87 1.5 W 6 13 3 7 1014.0 1013.8 0.0
19/11:00pm 24.2 27.3 22.2 88 1.3 W 9 17 5 9 1014.1 1013.9 0.0
19/10:30pm 24.4 27.0 21.9 86 1.7 WSW 11 19 6 10 1014.3 1014.1 0.0
19/10:00pm 24.5 27.4 21.7 84 1.9 WSW 9 19 5 10 1014.6 1014.4 0.0
19/09:30pm 25.0 28.1 22.1 84 1.9 WSW 9 20 5 11 1014.7 1014.5 0.0
19/09:00pm 25.2 28.0 22.3 84 1.9 W 11 19 6 10 1014.6 1014.4 0.0
19/08:30pm 25.3 28.0 22.1 82 2.1 W 11 20 6 11 1014.8 1014.6 0.0
19/08:00pm 25.1 27.9 21.6 81 2.3 W 9 20 5 11 1014.7 1014.5 0.0
19/07:30pm 25.1 27.5 20.9 77 2.8 W 9 17 5 9 1014.6 1014.4 0.0
19/07:00pm 25.1 27.6 21.0 78 2.7 W 9 15 5 8 1014.4 1014.2 0.0
19/06:30pm 25.2 27.9 21.3 79 2.6 W 9 19 5 10 1014.0 1013.8 0.0
19/06:00pm 25.6 27.7 20.9 75 3.1 W 11 20 6 11 1013.7 1013.5 0.0
19/05:30pm 26.0 28.0 20.8 73 3.4 W 11 19 6 10 1013.5 1013.3 0.0
19/05:00pm 26.7 28.3 20.7 69 4.0 W 13 20 7 11 1013.4 1013.2 0.0
19/04:30pm 27.1 28.8 20.9 69 4.1 WNW 13 20 7 11 1013.1 1012.9 0.0
19/04:00pm 27.3 28.7 21.1 69 4.1 WNW 15 24 8 13 1012.9 1012.7 0.0
19/03:30pm 27.7 28.8 21.2 67 4.3 NW 17 26 9 14 1013.1 1012.9 0.0
19/03:00pm 27.9 28.2 20.8 65 4.7 NW 20 32 11 17 1013.3 1013.1 0.0
19/02:30pm 28.5 29.2 18.9 56 6.2 NW 13 26 7 14 1013.2 1013.0 0.0
19/02:00pm 28.9 29.2 18.7 54 6.6 NW 15 22 8 12 1013.4 1013.2 0.0
19/01:30pm 28.8 29.6 19.1 55 6.3 NW 13 20 7 11 1013.8 1013.6 0.0
19/01:00pm 29.5 31.0 20.5 58 6.0 NW 13 22 7 12 1014.3 1014.1 0.0
19/12:30pm 29.0 30.2 20.7 61 5.5 NW 15 22 8 12 1014.7 1014.5 0.0
19/12:00pm 28.4 29.9 20.5 62 5.2 NW 13 20 7 11 1015.0 1014.8 0.0
19/11:30am 28.7 30.4 20.2 60 5.6 NW 11 17 6 9 1015.3 1015.1 0.0
19/11:00am 29.1 31.6 21.0 61 5.4 NW 9 19 5 10 1015.8 1015.6 0.0
19/10:30am 29.2 31.2 19.9 57 6.1 WNW 9 19 5 10 1016.1 1015.9 0.0
19/10:00am 28.4 30.4 20.0 60 5.5 WNW 9 15 5 8 1016.5 1016.3 0.0
19/09:30am 28.4 30.2 18.8 56 6.2 NW 7 13 4 7 1016.9 1016.7 0.0
19/09:00am 29.3 30.2 15.0 41 8.7 WNW 4 11 2 6 1016.9 1016.7 -
19/08:30am 28.1 28.7 14.3 42 8.3 N 4 7 2 4 1017.0 1016.8 -
19/08:00am 27.5 27.5 13.6 42 8.2 N 6 7 3 4 1017.0 1016.8 -
19/07:30am 26.8 28.9 18.0 58 5.6 NNE 4 7 2 4 1016.8 1016.6 -
19/07:00am 24.9 26.0 16.5 59 5.2 NE 6 9 3 5 1016.3 1016.1 -
19/06:30am 21.6 23.5 16.8 74 2.9 ENE 2 4 1 2 1015.6 1015.4 -
19/06:00am 19.1 20.3 15.8 81 2.0 E 4 6 2 3 1015.3 1015.1 -
19/05:30am 19.3 20.4 16.6 84 1.6 S 6 7 3 4 1014.4 1014.2 -
19/05:00am 19.4 21.5 17.3 88 1.3 SE 2 6 1 3 1014.1 1013.9 -
19/04:30am 21.2 23.2 17.9 81 2.0 NNE 4 7 2 4 1013.7 1013.5 -
19/04:00am 22.4 24.9 19.9 86 1.6 N 6 13 3 7 1013.1 1012.9 -
19/03:30am 23.0 25.6 20.5 86 1.6 SW 7 17 4 9 1012.7 1012.5 -
19/03:00am 23.0 25.3 21.3 90 1.1 SW 11 19 6 10 1012.6 1012.4 0.0
19/02:30am 22.7 25.6 21.7 94 0.7 SW 9 15 5 8 1012.8 1012.6 -
19/02:00am 22.7 25.4 21.3 92 0.9 SW 9 15 5 8 1012.8 1012.6 -
19/01:30am 22.6 25.1 21.1 91 1.0 SW 9 17 5 9 1013.2 1013.0 -
19/01:00am 23.0 25.5 21.1 89 1.2 WSW 9 17 5 9 1013.4 1013.2 -
19/12:30am 23.4 26.4 21.3 88 1.4 WSW 7 15 4 8 1013.9 1013.7 -
19/12:00am 23.4 26.5 21.4 88 1.3 W 7 13 4 7 1014.2 1014.0 -
 
Date/Time
WST
Temp
°C
App
Temp
°C
Dew
Point
Rel
Hum
%
Delta-T
°C
Wind Press
QNH
hPa
Press
MSL
hPa
Rain
since 9 am
mm
Dir
 
Spd
km/h
Gust
km/h
Spd
kts
Gust
kts
18/11:30pm 23.6 26.7 21.4 87 1.5 WSW 7 13 4 7 1014.7 1014.5 -
18/11:00pm 23.9 26.7 21.6 87 1.5 WSW 9 15 5 8 1015.1 1014.9 -
18/10:30pm 23.7 26.9 21.6 88 1.4 WSW 7 13 4 7 1015.4 1015.2 -
18/10:00pm 23.9 27.0 21.1 84 1.8 W 6 11 3 6 1015.7 1015.5 -
18/09:30pm 23.8 26.9 21.1 85 1.8 W 6 11 3 6 1015.9 1015.7 -
18/09:00pm 23.8 27.3 21.8 88 1.3 W 6 9 3 5 1016.0 1015.8 -
18/08:30pm 24.1 27.7 22.1 88 1.3 W 6 9 3 5 1016.0 1015.8 -
18/08:00pm 24.3 27.8 21.8 86 1.7 W 6 13 3 7 1015.8 1015.6 -
18/07:30pm 24.4 27.5 21.4 83 2.0 W 7 11 4 6 1015.4 1015.2 -
18/07:00pm 24.7 27.7 21.2 81 2.3 W 7 13 4 7 1015.1 1014.9 -
18/06:30pm 24.9 27.8 21.0 79 2.6 W 7 11 4 6 1014.7 1014.5 -
18/06:00pm 25.4 27.8 20.8 75 3.0 W 9 17 5 9 1014.3 1014.1 -
18/05:30pm 25.9 28.0 20.9 74 3.3 W 11 20 6 11 1013.7 1013.5 -
18/05:00pm 26.9 28.1 19.9 65 4.6 W 13 24 7 13 1013.2 1013.0 -
18/04:30pm 27.9 29.3 19.6 60 5.4 W 11 19 6 10 1012.9 1012.7 -
18/04:00pm 28.2 28.6 18.9 57 6.0 W 15 30 8 16 1012.9 1012.7 -
18/03:30pm 28.4 28.8 19.8 59 5.6 W 17 26 9 14 1012.8 1012.6 -
18/03:00pm 29.1 30.0 19.2 55 6.4 W 13 22 7 12 1012.9 1012.7 -
18/02:30pm 29.1 29.1 18.1 51 7.0 W 15 30 8 16 1013.0 1012.8 -
18/02:00pm 29.4 29.1 17.4 48 7.6 WNW 15 28 8 15 1013.1 1012.9 -
18/01:30pm 29.5 28.0 15.3 42 8.7 W 17 28 9 15 1013.6 1013.4 -
18/01:00pm 30.1 30.9 19.1 51 7.2 WNW 13 20 7 11 1014.0 1013.8 -
18/12:30pm 29.5 29.4 17.9 49 7.4 WNW 15 22 8 12 1014.4 1014.2 -
18/12:00pm 29.5 29.6 17.5 48 7.6 W 13 24 7 13 1014.9 1014.7 -
18/11:30am 29.0 29.9 19.3 55 6.3 WNW 13 20 7 11 1015.5 1015.3 0.0
18/11:00am 29.5 30.7 19.1 53 6.7 NW 11 20 6 11 1015.9 1015.7 0.0
18/10:00am 29.1 30.0 18.5 52 6.8 W 11 17 6 9 1016.7 1016.5 0.0
18/09:30am 29.1 28.7 15.2 42 8.5 W 11 19 6 10 1016.9 1016.7 0.0
18/09:00am 28.6 29.7 18.0 52 6.7 W 9 17 5 9 1017.0 1016.8 -
18/08:30am 27.0 29.9 21.1 70 3.9 W 7 13 4 7 1017.3 1017.1 -
18/08:00am 26.1 29.0 21.1 74 3.3 W 7 13 4 7 1017.3 1017.1 -
18/07:30am 25.4 29.0 22.3 83 2.1 W 7 13 4 7 1016.9 1016.7 -
18/07:00am 24.3 28.5 23.2 94 0.7 W 6 9 3 5 1016.5 1016.3 -
18/06:30am 22.2 26.0 21.6 96 0.4 W 4 6 2 3 1016.3 1016.1 -
18/06:00am 20.4 23.5 19.6 95 0.5 N 2 2 1 1 1016.0 1015.8 -
18/05:52am 20.3 23.9 19.7 96 0.4 CALM 0 2 0 1 1016.0 1015.8 -
18/05:30am 20.6 24.2 19.7 95 0.6 CALM 0 4 0 2 1015.8 1015.6 -
18/05:00am 21.0 24.2 19.8 93 0.8 SSE 2 2 1 1 1015.6 1015.4 -
18/04:49am 21.5 25.1 20.5 94 0.6 WSW 2 4 1 2 1015.4 1015.2 -
18/04:30am 22.7 26.5 21.7 94 0.7 W 4 13 2 7 1015.1 1014.9 -
18/04:00am 23.0 26.3 21.9 93 0.7 W 7 11 4 6 1014.6 1014.4 -
18/03:30am 23.0 26.6 22.1 95 0.6 W 6 13 3 7 1014.5 1014.3 -
18/03:00am 23.2 26.7 22.2 94 0.7 WNW 7 13 4 7 1014.2 1014.0 0.0
18/02:30am 23.2 26.3 22.1 93 0.7 W 9 19 5 10 1014.2 1014.0 -
18/02:00am 23.3 26.6 22.5 95 0.5 W 9 17 5 9 1013.9 1013.7 -
18/01:30am 23.4 26.8 22.7 96 0.5 W 9 15 5 8 1014.1 1013.9 -
18/01:00am 23.2 26.9 22.5 96 0.5 WNW 7 11 4 6 1014.2 1014.0 -
18/12:30am 23.0 26.6 22.3 96 0.5 W 7 13 4 7 1014.4 1014.2 -
18/12:00am 23.0 26.7 22.3 96 0.5 W 6 9 3 5 1014.6 1014.4 -
 
Date/Time
WST
Temp
°C
App
Temp
°C
Dew
Point
Rel
Hum
%
Delta-T
°C
Wind Press
QNH
hPa
Press
MSL
hPa
Rain
since 9 am
mm
Dir
 
Spd
km/h
Gust
km/h
Spd
kts
Gust
kts
17/11:30pm 23.2 27.1 22.5 96 0.5 W 6 11 3 6 1014.7 1014.5 -
17/11:00pm 23.3 27.3 22.7 96 0.4 W 6 13 3 7 1014.9 1014.7 -
17/10:30pm 23.2 27.1 22.5 96 0.5 W 6 9 3 5 1015.2 1015.0 -
17/10:00pm 23.1 26.9 22.4 96 0.5 W 6 9 3 5 1015.2 1015.0 -
17/09:30pm 23.1 26.8 22.2 95 0.6 W 6 11 3 6 1015.2 1015.0 -
17/09:00pm 23.2 27.0 22.4 95 0.5 W 6 9 3 5 1015.1 1014.9 0.0
17/08:30pm 22.9 26.5 22.0 95 0.6 W 6 9 3 5 1015.0 1014.8 -
17/08:00pm 23.0 26.6 22.1 95 0.6 WSW 6 9 3 5 1014.6 1014.4 -
17/07:30pm 23.2 27.2 22.0 93 0.8 W 4 7 2 4 1014.4 1014.2 -
17/07:00pm 23.5 27.2 22.2 92 0.9 W 6 9 3 5 1014.0 1013.8 -
17/06:30pm 23.9 27.6 22.2 90 1.1 W 6 11 3 6 1013.8 1013.6 -
17/06:00pm 24.5 28.0 22.2 87 1.5 W 7 13 4 7 1013.5 1013.3 -
17/05:30pm 25.2 28.3 22.1 83 2.1 W 9 15 5 8 1013.2 1013.0 -
17/05:00pm 26.1 28.7 21.9 77 2.8 WNW 11 19 6 10 1012.9 1012.7 -
17/04:30pm 26.6 28.9 22.0 76 3.1 WNW 13 20 7 11 1012.8 1012.6 -
17/04:00pm 27.2 29.3 21.7 72 3.7 WNW 13 20 7 11 1012.6 1012.4 -
17/03:30pm 26.9 29.1 21.1 70 3.8 WNW 11 22 6 12 1012.6 1012.4 -
17/03:00pm 26.8 28.4 21.4 72 3.6 WNW 15 22 8 12 1012.8 1012.6 -
17/02:30pm 27.6 29.2 21.4 69 4.1 NNW 15 24 8 13 1013.0 1012.8 -
17/02:00pm 27.7 29.6 22.1 71 3.8 NW 15 22 8 12 1013.0 1012.8 -
17/01:30pm 27.8 29.1 20.9 66 4.6 NW 15 26 8 14 1013.2 1013.0 -
17/01:00pm 27.6 28.8 20.7 66 4.6 WNW 15 28 8 15 1013.5 1013.3 -
17/12:30pm 27.5 29.2 21.6 70 3.9 NW 15 26 8 14 1013.8 1013.6 -
17/12:00pm 27.8 29.4 21.4 68 4.3 WNW 15 22 8 12 1014.2 1014.0 -

Other Formats:

Comma delimited format used in spreadsheet applications
http://www.bom.gov.au/fwo/IDW60801/IDW60801.99206.axf

JavaScript Object Notation format (JSON) in row-major order
http://www.bom.gov.au/fwo/IDW60801/IDW60801.99206.json